sensor_id;sensor_type;location;lat;lon;timestamp;pressure;altitude;pressure_sealevel;temperature;humidity
76592;BME280;65481;47.600;19.682;2024-03-22T00:02:00;100539.28;;;8.31;93.05
76592;BME280;65481;47.600;19.682;2024-03-22T00:07:01;100531.38;;;8.31;93.01
76592;BME280;65481;47.600;19.682;2024-03-22T00:12:01;100535.44;;;8.21;93.92
76592;BME280;65481;47.600;19.682;2024-03-22T00:17:02;100527.34;;;8.15;94.97
76592;BME280;65481;47.600;19.682;2024-03-22T00:22:03;100528.38;;;8.14;95.06
76592;BME280;65481;47.600;19.682;2024-03-22T00:27:03;100523.31;;;8.19;95.33
76592;BME280;65481;47.600;19.682;2024-03-22T00:32:04;100519.06;;;8.18;95.21
76592;BME280;65481;47.600;19.682;2024-03-22T00:37:05;100522.69;;;8.17;95.37
76592;BME280;65481;47.600;19.682;2024-03-22T00:42:05;100512.81;;;8.06;95.97
76592;BME280;65481;47.600;19.682;2024-03-22T00:47:06;100512.84;;;7.99;96.50
76592;BME280;65481;47.600;19.682;2024-03-22T00:52:06;100518.69;;;7.68;99.73
76592;BME280;65481;47.600;19.682;2024-03-22T00:57:07;100515.44;;;7.72;99.52
76592;BME280;65481;47.600;19.682;2024-03-22T01:02:07;100517.47;;;7.77;99.46
76592;BME280;65481;47.600;19.682;2024-03-22T01:07:08;100517.69;;;7.82;99.64
76592;BME280;65481;47.600;19.682;2024-03-22T01:12:08;100507.56;;;7.79;99.63
76592;BME280;65481;47.600;19.682;2024-03-22T01:17:09;100505.34;;;7.76;99.36
76592;BME280;65481;47.600;19.682;2024-03-22T01:22:09;100504.75;;;7.74;99.87
76592;BME280;65481;47.600;19.682;2024-03-22T01:27:10;100493.03;;;7.77;99.36
76592;BME280;65481;47.600;19.682;2024-03-22T01:32:10;100497.28;;;7.71;99.17
76592;BME280;65481;47.600;19.682;2024-03-22T01:37:11;100490.19;;;7.58;99.33
76592;BME280;65481;47.600;19.682;2024-03-22T01:42:11;100505.72;;;7.53;100.00
76592;BME280;65481;47.600;19.682;2024-03-22T01:47:12;100500.69;;;7.58;100.00
76592;BME280;65481;47.600;19.682;2024-03-22T01:52:14;100506.97;;;7.70;100.00
76592;BME280;65481;47.600;19.682;2024-03-22T01:57:14;100503.13;;;7.66;100.00
76592;BME280;65481;47.600;19.682;2024-03-22T02:02:15;100508.38;;;7.80;100.00
76592;BME280;65481;47.600;19.682;2024-03-22T02:07:16;100510.59;;;7.90;100.00
76592;BME280;65481;47.600;19.682;2024-03-22T02:12:16;100508.38;;;7.93;100.00
76592;BME280;65481;47.600;19.682;2024-03-22T02:17:17;100506.38;;;7.88;100.00
76592;BME280;65481;47.600;19.682;2024-03-22T02:22:17;100490.41;;;7.70;100.00
76592;BME280;65481;47.600;19.682;2024-03-22T02:27:18;100482.72;;;7.55;100.00
76592;BME280;65481;47.600;19.682;2024-03-22T02:32:18;100483.09;;;7.52;100.00
76592;BME280;65481;47.600;19.682;2024-03-22T02:37:19;100486.78;;;7.57;100.00
76592;BME280;65481;47.600;19.682;2024-03-22T02:42:19;100485.94;;;7.64;100.00
76592;BME280;65481;47.600;19.682;2024-03-22T02:47:20;100487.56;;;7.65;100.00
76592;BME280;65481;47.600;19.682;2024-03-22T02:52:20;100484.53;;;7.61;100.00
76592;BME280;65481;47.600;19.682;2024-03-22T02:57:21;100489.19;;;7.59;100.00
76592;BME280;65481;47.600;19.682;2024-03-22T03:02:21;100483.09;;;7.58;100.00
76592;BME280;65481;47.600;19.682;2024-03-22T03:07:22;100481.91;;;7.61;100.00
76592;BME280;65481;47.600;19.682;2024-03-22T03:12:22;100483.53;;;7.62;100.00
76592;BME280;65481;47.600;19.682;2024-03-22T03:17:23;100478.69;;;7.52;100.00
76592;BME280;65481;47.600;19.682;2024-03-22T03:22:23;100480.47;;;7.45;100.00
76592;BME280;65481;47.600;19.682;2024-03-22T03:27:24;100484.94;;;7.45;100.00
76592;BME280;65481;47.600;19.682;2024-03-22T03:32:24;100483.72;;;7.54;100.00
76592;BME280;65481;47.600;19.682;2024-03-22T03:37:25;100476.84;;;7.60;100.00
76592;BME280;65481;47.600;19.682;2024-03-22T03:42:25;100476.44;;;7.76;100.00
76592;BME280;65481;47.600;19.682;2024-03-22T03:47:26;100475.25;;;7.79;100.00
76592;BME280;65481;47.600;19.682;2024-03-22T03:52:26;100477.47;;;7.75;100.00
76592;BME280;65481;47.600;19.682;2024-03-22T03:57:27;100479.28;;;7.81;100.00
76592;BME280;65481;47.600;19.682;2024-03-22T04:02:27;100483.91;;;7.86;100.00
76592;BME280;65481;47.600;19.682;2024-03-22T04:07:28;100496.03;;;7.87;100.00
76592;BME280;65481;47.600;19.682;2024-03-22T04:12:29;100489.56;;;7.69;100.00
76592;BME280;65481;47.600;19.682;2024-03-22T04:17:29;100491.81;;;7.59;100.00
76592;BME280;65481;47.600;19.682;2024-03-22T04:22:30;100505.72;;;7.60;100.00
76592;BME280;65481;47.600;19.682;2024-03-22T04:27:30;100499.06;;;7.50;100.00
76592;BME280;65481;47.600;19.682;2024-03-22T04:32:31;100497.06;;;7.59;100.00
76592;BME280;65481;47.600;19.682;2024-03-22T04:37:31;100503.94;;;7.53;100.00
76592;BME280;65481;47.600;19.682;2024-03-22T04:42:32;100504.16;;;7.65;100.00
76592;BME280;65481;47.600;19.682;2024-03-22T04:47:32;100506.97;;;7.70;100.00
76592;BME280;65481;47.600;19.682;2024-03-22T04:52:33;100496.06;;;7.67;100.00
76592;BME280;65481;47.600;19.682;2024-03-22T04:57:33;100505.56;;;7.75;100.00
76592;BME280;65481;47.600;19.682;2024-03-22T05:02:33;100504.34;;;7.84;100.00
76592;BME280;65481;47.600;19.682;2024-03-22T05:07:34;100504.34;;;7.84;100.00
76592;BME280;65481;47.600;19.682;2024-03-22T05:12:35;100490.00;;;7.80;100.00
76592;BME280;65481;47.600;19.682;2024-03-22T05:17:36;100497.03;;;7.86;100.00
76592;BME280;65481;47.600;19.682;2024-03-22T05:22:37;100501.50;;;7.85;100.00
76592;BME280;65481;47.600;19.682;2024-03-22T05:27:38;100509.00;;;7.82;100.00
76592;BME280;65481;47.600;19.682;2024-03-22T05:32:39;100503.53;;;7.83;100.00
76592;BME280;65481;47.600;19.682;2024-03-22T05:37:40;100495.84;;;7.95;100.00
76592;BME280;65481;47.600;19.682;2024-03-22T05:42:41;100502.91;;;7.95;100.00
76592;BME280;65481;47.600;19.682;2024-03-22T05:47:41;100495.63;;;8.03;100.00
76592;BME280;65481;47.600;19.682;2024-03-22T05:52:41;100489.97;;;8.07;100.00
76592;BME280;65481;47.600;19.682;2024-03-22T05:57:42;100489.38;;;8.11;100.00
76592;BME280;65481;47.600;19.682;2024-03-22T06:02:42;100478.25;;;8.16;100.00
76592;BME280;65481;47.600;19.682;2024-03-22T06:07:44;100483.25;;;8.31;100.00
76592;BME280;65481;47.600;19.682;2024-03-22T06:12:46;100492.31;;;8.42;100.00
76592;BME280;65481;47.600;19.682;2024-03-22T06:17:47;100487.09;;;8.48;100.00
76592;BME280;65481;47.600;19.682;2024-03-22T06:22:48;100489.84;;;8.74;100.00
76592;BME280;65481;47.600;19.682;2024-03-22T06:27:48;100477.69;;;9.12;100.00
76592;BME280;65481;47.600;19.682;2024-03-22T06:32:50;100481.91;;;9.45;100.00
76592;BME280;65481;47.600;19.682;2024-03-22T06:37:51;100474.31;;;9.62;100.00
76592;BME280;65481;47.600;19.682;2024-03-22T06:42:51;100486.78;;;9.73;100.00
76592;BME280;65481;47.600;19.682;2024-03-22T06:47:51;100496.47;;;9.79;100.00
76592;BME280;65481;47.600;19.682;2024-03-22T06:52:55;100495.84;;;10.03;100.00
76592;BME280;65481;47.600;19.682;2024-03-22T06:57:55;100501.47;;;10.50;100.00
76592;BME280;65481;47.600;19.682;2024-03-22T07:02:56;100505.06;;;10.74;100.00
76592;BME280;65481;47.600;19.682;2024-03-22T07:07:56;100517.72;;;11.15;100.00
76592;BME280;65481;47.600;19.682;2024-03-22T07:12:57;100521.03;;;11.41;100.00
76592;BME280;65481;47.600;19.682;2024-03-22T07:17:58;100521.00;;;11.71;99.42
76592;BME280;65481;47.600;19.682;2024-03-22T07:22:58;100514.81;;;12.01;97.19
76592;BME280;65481;47.600;19.682;2024-03-22T07:27:59;100517.13;;;12.21;95.90
76592;BME280;65481;47.600;19.682;2024-03-22T07:32:59;100525.41;;;12.37;94.91
76592;BME280;65481;47.600;19.682;2024-03-22T07:38:00;100524.44;;;12.43;94.72
76592;BME280;65481;47.600;19.682;2024-03-22T07:43:00;100515.25;;;12.57;93.57
76592;BME280;65481;47.600;19.682;2024-03-22T07:48:06;100524.88;;;12.64;94.19
76592;BME280;65481;47.600;19.682;2024-03-22T07:53:07;100525.75;;;12.81;94.29
76592;BME280;65481;47.600;19.682;2024-03-22T07:58:07;100520.41;;;12.93;94.63
76592;BME280;65481;47.600;19.682;2024-03-22T08:03:14;100523.69;;;13.12;94.53
76592;BME280;65481;47.600;19.682;2024-03-22T08:08:15;100528.69;;;13.26;93.70
76592;BME280;65481;47.600;19.682;2024-03-22T08:13:16;100531.38;;;13.43;91.91
76592;BME280;65481;47.600;19.682;2024-03-22T08:18:16;100533.41;;;13.53;91.09
76592;BME280;65481;47.600;19.682;2024-03-22T08:23:17;100532.28;;;13.66;89.98
76592;BME280;65481;47.600;19.682;2024-03-22T08:28:20;100534.84;;;13.60;89.80
76592;BME280;65481;47.600;19.682;2024-03-22T08:33:20;100534.56;;;13.74;88.98
76592;BME280;65481;47.600;19.682;2024-03-22T08:38:21;100546.63;;;13.82;88.66
76592;BME280;65481;47.600;19.682;2024-03-22T08:43:21;100536.06;;;14.04;86.71
76592;BME280;65481;47.600;19.682;2024-03-22T08:48:29;100541.00;;;14.34;85.75
76592;BME280;65481;47.600;19.682;2024-03-22T08:53:29;100530.75;;;14.65;82.06
76592;BME280;65481;47.600;19.682;2024-03-22T08:58:30;100527.19;;;14.99;79.76
76592;BME280;65481;47.600;19.682;2024-03-22T09:03:30;100532.72;;;15.20;76.53
76592;BME280;65481;47.600;19.682;2024-03-22T09:08:31;100529.44;;;15.40;76.14
76592;BME280;65481;47.600;19.682;2024-03-22T09:13:34;100520.94;;;15.43;76.62
76592;BME280;65481;47.600;19.682;2024-03-22T09:18:35;100521.56;;;15.50;76.90
76592;BME280;65481;47.600;19.682;2024-03-22T09:23:36;100517.69;;;15.68;75.74
76592;BME280;65481;47.600;19.682;2024-03-22T09:28:36;100507.41;;;16.15;74.27
76592;BME280;65481;47.600;19.682;2024-03-22T09:33:37;100497.63;;;17.20;70.47
76592;BME280;65481;47.600;19.682;2024-03-22T09:38:37;100488.50;;;17.89;68.05
76592;BME280;65481;47.600;19.682;2024-03-22T09:43:39;100479.66;;;18.14;65.00
76592;BME280;65481;47.600;19.682;2024-03-22T09:48:41;100467.81;;;18.86;59.22
76592;BME280;65481;47.600;19.682;2024-03-22T09:53:44;100477.03;;;19.44;57.80
76592;BME280;65481;47.600;19.682;2024-03-22T09:58:45;100482.03;;;20.34;54.83
76592;BME280;65481;47.600;19.682;2024-03-22T10:03:46;100473.81;;;20.87;51.63
76592;BME280;65481;47.600;19.682;2024-03-22T10:08:46;100476.78;;;21.05;50.84
76592;BME280;65481;47.600;19.682;2024-03-22T10:13:47;100463.88;;;21.21;50.05
76592;BME280;65481;47.600;19.682;2024-03-22T10:18:51;100455.81;;;21.40;49.94
76592;BME280;65481;47.600;19.682;2024-03-22T10:23:53;100446.66;;;21.41;48.75
76592;BME280;65481;47.600;19.682;2024-03-22T10:28:53;100444.44;;;21.29;48.07
76592;BME280;65481;47.600;19.682;2024-03-22T10:33:54;100449.09;;;20.91;48.54
76592;BME280;65481;47.600;19.682;2024-03-22T10:38:56;100441.06;;;20.91;48.17
76592;BME280;65481;47.600;19.682;2024-03-22T10:43:57;100447.38;;;20.81;47.93
76592;BME280;65481;47.600;19.682;2024-03-22T10:48:58;100434.81;;;20.95;48.03
76592;BME280;65481;47.600;19.682;2024-03-22T10:53:59;100436.66;;;21.14;47.97
76592;BME280;65481;47.600;19.682;2024-03-22T10:59:04;100433.91;;;21.00;48.26
76592;BME280;65481;47.600;19.682;2024-03-22T11:04:05;100428.50;;;20.67;48.32
76592;BME280;65481;47.600;19.682;2024-03-22T11:09:18;100428.78;;;20.65;49.82
76592;BME280;65481;47.600;19.682;2024-03-22T11:14:21;100412.03;;;20.73;47.84
76592;BME280;65481;47.600;19.682;2024-03-22T11:19:23;100412.13;;;20.49;47.63
76592;BME280;65481;47.600;19.682;2024-03-22T11:24:24;100410.81;;;20.47;49.06
76592;BME280;65481;47.600;19.682;2024-03-22T11:29:24;100399.47;;;20.36;48.62
76592;BME280;65481;47.600;19.682;2024-03-22T11:34:25;100383.50;;;20.64;48.59
76592;BME280;65481;47.600;19.682;2024-03-22T11:39:25;100387.31;;;20.96;47.95
76592;BME280;65481;47.600;19.682;2024-03-22T11:44:26;100377.00;;;20.70;49.13
76592;BME280;65481;47.600;19.682;2024-03-22T11:49:27;100372.47;;;20.65;48.72
76592;BME280;65481;47.600;19.682;2024-03-22T11:54:27;100359.25;;;21.07;48.45
76592;BME280;65481;47.600;19.682;2024-03-22T11:59:29;100350.59;;;21.24;46.19
76592;BME280;65481;47.600;19.682;2024-03-22T12:04:30;100352.22;;;20.78;45.43
76592;BME280;65481;47.600;19.682;2024-03-22T12:09:30;100350.75;;;20.67;44.16
76592;BME280;65481;47.600;19.682;2024-03-22T12:14:31;100345.69;;;20.84;43.01
76592;BME280;65481;47.600;19.682;2024-03-22T12:19:32;100335.47;;;21.00;42.29
76592;BME280;65481;47.600;19.682;2024-03-22T12:24:32;100341.88;;;20.52;42.41
76592;BME280;65481;47.600;19.682;2024-03-22T12:29:33;100332.47;;;20.88;43.45
76592;BME280;65481;47.600;19.682;2024-03-22T12:34:34;100338.66;;;20.88;43.18
76592;BME280;65481;47.600;19.682;2024-03-22T12:39:35;100333.94;;;20.80;42.98
76592;BME280;65481;47.600;19.682;2024-03-22T12:44:35;100332.66;;;20.58;41.25
76592;BME280;65481;47.600;19.682;2024-03-22T12:49:35;100320.63;;;20.56;40.11
76592;BME280;65481;47.600;19.682;2024-03-22T12:54:36;100314.44;;;20.41;38.67
76592;BME280;65481;47.600;19.682;2024-03-22T12:59:36;100314.38;;;20.27;37.65
76592;BME280;65481;47.600;19.682;2024-03-22T13:04:37;100301.56;;;20.05;37.18
76592;BME280;65481;47.600;19.682;2024-03-22T13:09:37;100290.50;;;20.12;38.24
76592;BME280;65481;47.600;19.682;2024-03-22T13:14:38;100286.03;;;20.07;39.32
76592;BME280;65481;47.600;19.682;2024-03-22T13:19:38;100279.13;;;20.01;40.10
76592;BME280;65481;47.600;19.682;2024-03-22T13:24:39;100274.31;;;19.79;40.89
76592;BME280;65481;47.600;19.682;2024-03-22T13:29:40;100269.75;;;19.79;40.08
76592;BME280;65481;47.600;19.682;2024-03-22T13:34:42;100263.63;;;19.79;39.72
76592;BME280;65481;47.600;19.682;2024-03-22T13:39:43;100249.06;;;19.85;41.02
76592;BME280;65481;47.600;19.682;2024-03-22T13:44:43;100247.03;;;19.77;41.04
76592;BME280;65481;47.600;19.682;2024-03-22T13:49:44;100235.66;;;19.85;42.15
76592;BME280;65481;47.600;19.682;2024-03-22T13:54:45;100228.38;;;19.72;42.57
76592;BME280;65481;47.600;19.682;2024-03-22T13:59:45;100228.22;;;19.44;43.69
76592;BME280;65481;47.600;19.682;2024-03-22T14:04:47;100230.81;;;19.49;43.87
76592;BME280;65481;47.600;19.682;2024-03-22T14:09:48;100224.47;;;19.64;45.74
76592;BME280;65481;47.600;19.682;2024-03-22T14:14:49;100223.50;;;19.35;47.08
76592;BME280;65481;47.600;19.682;2024-03-22T14:19:49;100223.56;;;19.30;47.47
76592;BME280;65481;47.600;19.682;2024-03-22T14:24:50;100219.03;;;19.06;48.07
76592;BME280;65481;47.600;19.682;2024-03-22T14:29:50;100210.94;;;18.58;49.07
76592;BME280;65481;47.600;19.682;2024-03-22T14:34:52;100208.97;;;18.39;49.62
76592;BME280;65481;47.600;19.682;2024-03-22T14:39:52;100209.00;;;18.64;49.62
76592;BME280;65481;47.600;19.682;2024-03-22T14:44:53;100200.31;;;18.53;49.43
76592;BME280;65481;47.600;19.682;2024-03-22T14:49:55;100194.81;;;18.39;49.15
76592;BME280;65481;47.600;19.682;2024-03-22T14:54:56;100196.69;;;18.38;49.78
76592;BME280;65481;47.600;19.682;2024-03-22T14:59:57;100205.41;;;18.49;50.00
76592;BME280;65481;47.600;19.682;2024-03-22T15:04:57;100188.91;;;18.12;49.68
76592;BME280;65481;47.600;19.682;2024-03-22T15:09:58;100192.44;;;17.97;49.50
76592;BME280;65481;47.600;19.682;2024-03-22T15:14:58;100200.81;;;17.80;50.25
76592;BME280;65481;47.600;19.682;2024-03-22T15:20:00;100195.69;;;17.44;50.89
76592;BME280;65481;47.600;19.682;2024-03-22T15:25:00;100193.16;;;17.13;52.73
76592;BME280;65481;47.600;19.682;2024-03-22T15:30:01;100198.56;;;16.82;53.07
76592;BME280;65481;47.600;19.682;2024-03-22T15:35:02;100204.44;;;16.58;55.25
76592;BME280;65481;47.600;19.682;2024-03-22T15:40:03;100207.41;;;16.31;56.20
76592;BME280;65481;47.600;19.682;2024-03-22T15:45:04;100202.59;;;16.12;57.64
76592;BME280;65481;47.600;19.682;2024-03-22T15:50:08;100204.75;;;16.05;58.27
76592;BME280;65481;47.600;19.682;2024-03-22T15:55:09;100198.06;;;16.02;58.67
76592;BME280;65481;47.600;19.682;2024-03-22T16:00:10;100204.97;;;15.98;59.21
76592;BME280;65481;47.600;19.682;2024-03-22T16:05:12;100197.75;;;15.83;59.87
76592;BME280;65481;47.600;19.682;2024-03-22T16:10:12;100194.28;;;15.72;60.42
76592;BME280;65481;47.600;19.682;2024-03-22T16:15:13;100192.38;;;15.63;61.06
76592;BME280;65481;47.600;19.682;2024-03-22T16:20:13;100201.13;;;15.48;61.99
76592;BME280;65481;47.600;19.682;2024-03-22T16:25:14;100198.16;;;15.39;62.42
76592;BME280;65481;47.600;19.682;2024-03-22T16:30:14;100203.19;;;15.30;62.79
76592;BME280;65481;47.600;19.682;2024-03-22T16:35:17;100199.91;;;15.12;63.70
76592;BME280;65481;47.600;19.682;2024-03-22T16:40:21;100196.72;;;15.05;63.57
76592;BME280;65481;47.600;19.682;2024-03-22T16:45:21;100197.69;;;14.94;63.51
76592;BME280;65481;47.600;19.682;2024-03-22T16:50:22;100202.13;;;14.83;64.13
76592;BME280;65481;47.600;19.682;2024-03-22T16:55:23;100196.50;;;14.74;64.28
76592;BME280;65481;47.600;19.682;2024-03-22T17:00:25;100192.41;;;14.56;64.74
76592;BME280;65481;47.600;19.682;2024-03-22T17:05:26;100188.03;;;14.39;65.47
76592;BME280;65481;47.600;19.682;2024-03-22T17:10:26;100190.56;;;14.24;66.34
76592;BME280;65481;47.600;19.682;2024-03-22T17:15:27;100201.28;;;14.07;67.10
76592;BME280;65481;47.600;19.682;2024-03-22T17:20:28;100190.84;;;13.95;67.67
76592;BME280;65481;47.600;19.682;2024-03-22T17:25:29;100195.50;;;13.83;68.26
76592;BME280;65481;47.600;19.682;2024-03-22T17:30:29;100198.00;;;13.67;68.55
76592;BME280;65481;47.600;19.682;2024-03-22T17:35:30;100203.22;;;13.40;69.96
76592;BME280;65481;47.600;19.682;2024-03-22T17:40:30;100209.91;;;13.42;69.70
76592;BME280;65481;47.600;19.682;2024-03-22T17:45:32;100206.75;;;13.45;69.58
76592;BME280;65481;47.600;19.682;2024-03-22T17:50:32;100202.09;;;13.36;69.82
76592;BME280;65481;47.600;19.682;2024-03-22T17:55:33;100200.63;;;13.23;70.12
76592;BME280;65481;47.600;19.682;2024-03-22T18:00:33;100197.59;;;13.14;70.50
76592;BME280;65481;47.600;19.682;2024-03-22T18:05:34;100194.16;;;13.13;70.34
76592;BME280;65481;47.600;19.682;2024-03-22T18:10:35;100194.31;;;13.07;70.61
76592;BME280;65481;47.600;19.682;2024-03-22T18:15:38;100185.84;;;13.05;70.30
76592;BME280;65481;47.600;19.682;2024-03-22T18:20:39;100188.16;;;13.01;70.47
76592;BME280;65481;47.600;19.682;2024-03-22T18:25:39;100185.59;;;12.89;70.60
76592;BME280;65481;47.600;19.682;2024-03-22T18:30:40;100187.09;;;12.80;70.66
76592;BME280;65481;47.600;19.682;2024-03-22T18:35:44;100189.81;;;12.68;71.27
76592;BME280;65481;47.600;19.682;2024-03-22T18:40:44;100185.09;;;12.53;71.67
76592;BME280;65481;47.600;19.682;2024-03-22T18:45:45;100179.19;;;12.46;71.97
76592;BME280;65481;47.600;19.682;2024-03-22T18:50:49;100176.88;;;12.32;72.50
76592;BME280;65481;47.600;19.682;2024-03-22T18:55:50;100173.31;;;12.26;72.20
76592;BME280;65481;47.600;19.682;2024-03-22T19:00:50;100171.47;;;12.27;71.59
76592;BME280;65481;47.600;19.682;2024-03-22T19:05:51;100166.91;;;12.22;71.76
76592;BME280;65481;47.600;19.682;2024-03-22T19:10:51;100160.66;;;12.11;71.48
76592;BME280;65481;47.600;19.682;2024-03-22T19:15:55;100149.09;;;12.01;71.78
76592;BME280;65481;47.600;19.682;2024-03-22T19:20:56;100145.19;;;11.91;71.64
76592;BME280;65481;47.600;19.682;2024-03-22T19:25:56;100143.28;;;11.87;71.72
76592;BME280;65481;47.600;19.682;2024-03-22T19:30:58;100152.09;;;11.75;71.75
76592;BME280;65481;47.600;19.682;2024-03-22T19:35:59;100137.16;;;11.69;72.22
76592;BME280;65481;47.600;19.682;2024-03-22T19:41:00;100141.13;;;11.55;72.46
76592;BME280;65481;47.600;19.682;2024-03-22T19:51:10;100139.28;;;11.26;73.14
76592;BME280;65481;47.600;19.682;2024-03-22T19:56:30;100141.75;;;11.04;74.47
76592;BME280;65481;47.600;19.682;2024-03-22T20:01:33;100131.09;;;10.87;75.11
76592;BME280;65481;47.600;19.682;2024-03-22T20:06:34;100122.47;;;10.80;75.73
76592;BME280;65481;47.600;19.682;2024-03-22T20:11:37;100131.22;;;10.80;76.09
76592;BME280;65481;47.600;19.682;2024-03-22T20:16:38;100123.19;;;10.75;76.92
76592;BME280;65481;47.600;19.682;2024-03-22T20:21:39;100124.00;;;10.75;77.28
76592;BME280;65481;47.600;19.682;2024-03-22T20:26:39;100126.97;;;10.67;77.79
76592;BME280;65481;47.600;19.682;2024-03-22T20:31:43;100132.50;;;10.54;78.41
